Time;durP1;ratioP1;P1;durP2;ratioP2;P2;SDS_P1;SDS_P2;PMS_P1;PMS_P2;Temp;Humidity;BMP_temperature;BMP_pressure;BME280_temperature;BME280_humidity;BME280_pressure;Samples;Min_cycle;Max_cycle;Signal;HPM_P1;HPM_P2
2022/04/13 00:00:18;;;;;;;14.48;7.22;;;13.90;99.90;;;;;;5077175;28;20032;-80
2022/04/13 00:02:43;;;;;;;15.98;7.15;;;13.90;99.90;;;;;;5059359;28;20388;-81
2022/04/13 00:05:10;;;;;;;14.23;7.22;;;13.90;99.90;;;;;;5077816;28;20035;-80
2022/04/13 00:07:36;;;;;;;17.25;7.72;;;13.90;99.90;;;;;;5077832;28;20036;-80
2022/04/13 00:10:03;;;;;;;16.13;8.00;;;13.80;99.90;;;;;;5079756;28;20032;-80
2022/04/13 00:12:28;;;;;;;19.23;7.70;;;13.80;99.90;;;;;;5077758;28;20028;-80
2022/04/13 00:14:54;;;;;;;23.25;8.75;;;13.80;99.90;;;;;;5078037;28;20031;-80
2022/04/13 00:17:20;;;;;;;18.42;7.88;;;13.80;99.90;;;;;;5076601;28;20067;-81
2022/04/13 00:19:45;;;;;;;18.92;8.48;;;13.70;99.90;;;;;;5077333;28;20021;-80
2022/04/13 00:22:11;;;;;;;20.25;8.32;;;13.70;99.90;;;;;;5077815;28;20029;-81
2022/04/13 00:24:37;;;;;;;20.08;8.25;;;13.70;99.90;;;;;;5076459;28;20024;-80
2022/04/13 00:27:02;;;;;;;18.17;8.35;;;13.70;99.90;;;;;;5076584;28;20043;-80
2022/04/13 00:29:30;;;;;;;19.75;8.82;;;13.70;99.90;;;;;;5076802;28;20096;-80
2022/04/13 00:32:01;;;;;;;16.20;8.32;;;13.70;99.90;;;;;;5076839;28;20051;-81
2022/04/13 00:34:26;;;;;;;18.35;8.95;;;13.60;99.90;;;;;;5076153;28;20056;-80
2022/04/13 00:36:52;;;;;;;19.35;8.82;;;13.60;99.90;;;;;;5075668;28;20054;-80
2022/04/13 00:39:17;;;;;;;20.70;9.07;;;13.60;99.90;;;;;;5076326;28;20020;-81
2022/04/13 00:41:43;;;;;;;19.77;9.35;;;13.60;99.90;;;;;;5076271;28;20443;-80
2022/04/13 00:44:10;;;;;;;16.45;9.00;;;13.60;99.90;;;;;;5076088;28;20031;-80
2022/04/13 00:46:36;;;;;;;20.25;9.70;;;13.50;99.90;;;;;;5065701;28;20440;-80
2022/04/13 00:49:06;;;;;;;19.88;9.52;;;13.50;99.90;;;;;;5075890;28;20033;-80
2022/04/13 00:51:32;;;;;;;16.60;9.30;;;13.50;99.90;;;;;;5057938;28;20480;-80
2022/04/13 00:53:58;;;;;;;16.30;9.65;;;13.50;99.90;;;;;;5073743;28;20020;-80
2022/04/13 00:56:27;;;;;;;21.85;10.35;;;13.50;99.90;;;;;;5074895;28;20028;-80
2022/04/13 00:59:09;;;;;;;23.38;10.10;;;13.50;99.90;;;;;;5075513;28;20020;-81
2022/04/13 01:01:37;;;;;;;26.52;10.13;;;13.50;99.90;;;;;;5074987;28;20059;-81
2022/04/13 01:04:05;;;;;;;24.50;10.07;;;13.50;99.90;;;;;;5075494;28;20039;-81
2022/04/13 01:06:31;;;;;;;17.90;9.85;;;13.50;99.90;;;;;;5055915;28;20039;-81
2022/04/13 01:08:58;;;;;;;21.50;10.48;;;13.50;99.90;;;;;;5074353;28;20032;-81
2022/04/13 01:11:26;;;;;;;20.05;9.80;;;13.50;99.90;;;;;;5074306;28;20392;-80
2022/04/13 01:13:54;;;;;;;20.90;10.60;;;13.50;99.90;;;;;;5073396;28;20114;-80
2022/04/13 01:16:20;;;;;;;20.85;10.88;;;13.50;99.90;;;;;;5074833;28;20033;-80
2022/04/13 01:18:46;;;;;;;22.92;10.55;;;13.40;99.90;;;;;;5075658;28;20077;-80
2022/04/13 01:21:13;;;;;;;24.08;10.60;;;13.40;99.90;;;;;;5074776;28;20025;-81
2022/04/13 01:23:39;;;;;;;23.55;10.77;;;13.40;99.90;;;;;;5075177;28;20020;-81
2022/04/13 01:26:08;;;;;;;19.85;10.63;;;13.40;99.90;;;;;;5074449;28;20477;-81
2022/04/13 01:28:34;;;;;;;19.35;10.60;;;13.40;99.90;;;;;;5075210;28;20032;-81
2022/04/13 01:30:59;;;;;;;18.92;11.15;;;13.40;99.90;;;;;;5073961;28;20040;-81
2022/04/13 01:33:28;;;;;;;22.15;11.10;;;13.40;99.90;;;;;;5074237;28;20035;-81
2022/04/13 01:35:56;;;;;;;19.42;10.50;;;13.40;99.90;;;;;;5072561;28;20039;-82
2022/04/13 01:38:21;;;;;;;21.20;10.77;;;13.40;99.90;;;;;;5072733;28;20276;-82
2022/04/13 01:40:49;;;;;;;22.45;11.70;;;13.40;99.90;;;;;;5054976;28;20029;-82
2022/04/13 01:43:14;;;;;;;18.38;10.32;;;13.40;99.90;;;;;;5073100;28;20059;-81
2022/04/13 01:45:40;;;;;;;18.45;10.85;;;13.40;99.90;;;;;;5072358;28;20450;-81
2022/04/13 01:48:09;;;;;;;24.65;11.60;;;13.40;99.90;;;;;;5070590;28;20033;-81
2022/04/13 01:50:34;;;;;;;22.25;11.38;;;13.40;99.90;;;;;;5073486;28;20552;-81
2022/04/13 01:53:00;;;;;;;22.67;12.27;;;13.40;99.90;;;;;;5073923;28;20055;-81
2022/04/13 01:55:26;;;;;;;19.77;11.32;;;13.40;99.90;;;;;;5074009;28;20032;-81
2022/04/13 01:57:51;;;;;;;24.50;11.30;;;13.40;99.90;;;;;;5073671;28;20028;-81
2022/04/13 02:00:17;;;;;;;23.05;11.68;;;13.40;99.90;;;;;;5055371;28;20028;-81
2022/04/13 02:02:42;;;;;;;20.83;11.52;;;13.30;99.90;;;;;;5056224;28;20033;-81
2022/04/13 02:05:09;;;;;;;25.92;12.05;;;13.30;99.90;;;;;;5073121;28;20017;-81
2022/04/13 02:07:35;;;;;;;18.38;11.15;;;13.30;99.90;;;;;;5073886;28;20036;-81
2022/04/13 02:10:01;;;;;;;24.15;11.40;;;13.30;99.90;;;;;;5073047;28;20361;-81
2022/04/13 02:12:27;;;;;;;22.33;11.07;;;13.30;99.90;;;;;;5073302;28;20125;-81
2022/04/13 02:14:53;;;;;;;18.60;11.15;;;13.20;99.90;;;;;;5073523;28;20457;-81
2022/04/13 02:17:20;;;;;;;26.55;11.75;;;13.20;99.90;;;;;;5074305;28;20063;-81
2022/04/13 02:19:45;;;;;;;21.80;11.70;;;13.20;99.90;;;;;;5073078;28;20414;-81
2022/04/13 02:22:11;;;;;;;25.20;11.35;;;13.20;99.90;;;;;;5073216;28;20029;-81
2022/04/13 02:24:39;;;;;;;21.92;11.80;;;13.20;99.90;;;;;;5072869;28;20051;-81
2022/04/13 02:27:07;;;;;;;20.70;11.82;;;13.20;99.90;;;;;;5072578;28;20055;-81
2022/04/13 02:29:34;;;;;;;24.38;12.05;;;13.20;99.90;;;;;;5072630;28;20029;-81
2022/04/13 02:32:00;;;;;;;24.85;12.23;;;13.20;99.90;;;;;;5073331;28;20372;-81
2022/04/13 02:34:26;;;;;;;22.50;12.80;;;13.20;99.90;;;;;;5072509;28;20037;-81
2022/04/13 02:36:51;;;;;;;22.13;12.10;;;13.20;99.90;;;;;;5072782;28;20024;-81
2022/04/13 02:39:17;;;;;;;20.55;11.93;;;13.20;99.90;;;;;;5072370;28;20035;-81
2022/04/13 02:41:42;;;;;;;21.13;11.98;;;13.20;99.90;;;;;;5072636;28;20025;-81
2022/04/13 02:44:08;;;;;;;24.20;12.73;;;13.10;99.90;;;;;;5072414;28;20028;-81
2022/04/13 02:46:34;;;;;;;21.17;12.73;;;13.10;99.90;;;;;;5072399;28;20033;-81
2022/04/13 02:48:59;;;;;;;25.23;13.48;;;13.10;99.90;;;;;;5074577;28;20047;-81
2022/04/13 02:51:25;;;;;;;25.10;13.00;;;13.10;99.90;;;;;;5076637;28;20522;-81
2022/04/13 02:53:50;;;;;;;24.23;12.48;;;13.10;99.90;;;;;;5082923;28;20442;-81
2022/04/13 02:56:17;;;;;;;26.30;13.40;;;13.10;99.90;;;;;;5081577;28;20035;-81
2022/04/13 02:58:42;;;;;;;22.58;12.63;;;13.00;99.90;;;;;;5072180;28;20064;-81
2022/04/13 03:01:08;;;;;;;23.75;13.30;;;13.00;99.90;;;;;;5058485;28;20357;-81
2022/04/13 03:03:34;;;;;;;24.75;12.98;;;13.00;99.90;;;;;;5056661;28;20456;-81
2022/04/13 03:06:00;;;;;;;22.83;13.13;;;13.00;99.90;;;;;;5054642;28;20032;-81
2022/04/13 03:08:25;;;;;;;22.27;12.80;;;13.00;99.90;;;;;;5077816;28;20028;-81
2022/04/13 03:10:51;;;;;;;23.30;13.13;;;13.00;99.90;;;;;;5076779;28;20039;-81
2022/04/13 03:13:17;;;;;;;26.33;12.93;;;13.00;99.90;;;;;;5077526;28;20033;-81
2022/04/13 03:15:42;;;;;;;25.48;12.70;;;13.00;99.90;;;;;;5075972;28;20028;-80
2022/04/13 03:18:08;;;;;;;25.17;12.45;;;13.00;99.90;;;;;;5077043;28;20053;-81
2022/04/13 03:20:34;;;;;;;22.30;13.70;;;13.00;99.90;;;;;;5078058;28;20559;-81
2022/04/13 03:23:01;;;;;;;25.00;12.63;;;13.00;99.90;;;;;;5075815;28;20062;-80
2022/04/13 03:25:26;;;;;;;26.17;12.40;;;13.00;99.90;;;;;;5076724;28;20025;-80
2022/04/13 03:27:52;;;;;;;22.95;12.23;;;13.00;99.90;;;;;;5075154;28;20020;-81
2022/04/13 03:30:18;;;;;;;21.95;12.07;;;13.00;99.90;;;;;;5077491;28;20052;-81
2022/04/13 03:32:44;;;;;;;24.35;12.73;;;13.00;99.90;;;;;;5075859;28;20530;-81
2022/04/13 03:35:11;;;;;;;25.42;12.60;;;13.00;99.90;;;;;;5075304;28;20028;-81
2022/04/13 03:37:37;;;;;;;23.58;11.63;;;13.00;99.90;;;;;;5075557;28;20495;-81
2022/04/13 03:40:03;;;;;;;24.02;12.35;;;13.00;99.90;;;;;;5076133;28;20048;-81
2022/04/13 03:42:36;;;;;;;25.08;13.38;;;13.00;99.90;;;;;;5058889;28;20059;-81
2022/04/13 03:45:07;;;;;;;22.90;13.57;;;13.00;99.90;;;;;;5076110;28;20048;-81
2022/04/13 03:47:33;;;;;;;23.27;12.93;;;13.00;99.90;;;;;;5073035;28;20051;-81
2022/04/13 03:49:58;;;;;;;25.90;14.10;;;13.00;99.90;;;;;;5058827;28;20577;-81
2022/04/13 03:52:24;;;;;;;21.23;12.27;;;13.00;99.90;;;;;;5074652;28;20498;-81
2022/04/13 03:54:50;;;;;;;26.42;13.65;;;13.00;99.90;;;;;;5057070;28;20092;-81
2022/04/13 03:57:16;;;;;;;22.58;13.10;;;13.00;99.90;;;;;;5057099;28;20116;-81
2022/04/13 03:59:42;;;;;;;25.40;13.25;;;13.00;99.90;;;;;;5075532;28;20028;-81
2022/04/13 04:02:07;;;;;;;27.50;13.50;;;13.00;99.90;;;;;;5062399;28;20052;-81
2022/04/13 04:04:33;;;;;;;23.33;13.52;;;13.00;99.90;;;;;;5075227;28;20033;-81
2022/04/13 04:06:59;;;;;;;23.40;13.15;;;13.00;99.90;;;;;;5075437;28;20085;-81
2022/04/13 04:09:24;;;;;;;25.98;13.38;;;12.90;99.90;;;;;;5074863;28;20043;-81
2022/04/13 04:11:50;;;;;;;24.48;13.25;;;12.90;99.90;;;;;;5076196;28;20568;-81
2022/04/13 04:14:15;;;;;;;25.60;13.15;;;12.90;99.90;;;;;;5074374;28;20453;-81
2022/04/13 04:16:41;;;;;;;26.95;13.63;;;12.90;99.90;;;;;;5075971;28;20028;-81
2022/04/13 04:19:06;;;;;;;24.90;12.98;;;12.80;99.90;;;;;;5074704;28;20504;-82
2022/04/13 04:21:32;;;;;;;24.83;13.75;;;12.80;99.90;;;;;;5063332;28;20021;-81
2022/04/13 04:23:58;;;;;;;23.88;13.32;;;12.80;99.90;;;;;;5045712;28;20025;-81
2022/04/13 04:26:23;;;;;;;27.00;12.90;;;12.80;99.90;;;;;;5075462;28;20534;-80
2022/04/13 04:28:50;;;;;;;26.60;12.98;;;12.70;99.90;;;;;;5058594;28;20468;-81
2022/04/13 04:31:49;;;;;;;28.38;13.73;;;12.70;99.90;;;;;;5069538;28;20028;-82
2022/04/13 04:34:08;;;;;;;24.60;12.48;;;12.70;99.90;;;;;;5073113;28;20046;-81
2022/04/13 04:36:34;;;;;;;26.02;14.02;;;12.60;99.90;;;;;;5058782;28;20033;-82
2022/04/13 04:39:00;;;;;;;28.33;13.57;;;12.60;99.90;;;;;;5073028;28;20044;-82
2022/04/13 04:41:25;;;;;;;26.27;14.20;;;12.60;99.90;;;;;;5073381;28;20727;-82
2022/04/13 04:43:51;;;;;;;23.33;13.07;;;12.50;99.90;;;;;;5067257;28;20043;-83
2022/04/13 04:46:16;;;;;;;27.70;14.18;;;12.50;99.90;;;;;;5061231;28;20029;-83
2022/04/13 04:48:42;;;;;;;27.67;13.70;;;12.40;99.90;;;;;;5067137;28;20032;-81
2022/04/13 04:51:08;;;;;;;25.90;13.85;;;12.40;99.90;;;;;;5063956;28;20110;-82
2022/04/13 04:53:34;;;;;;;31.63;14.30;;;12.30;99.90;;;;;;5066371;28;20036;-82
2022/04/13 04:56:00;;;;;;;31.73;14.23;;;12.30;99.90;;;;;;5067888;28;20115;-82
2022/04/13 04:58:26;;;;;;;24.45;14.52;;;12.30;99.90;;;;;;5058993;28;20155;-82
2022/04/13 05:00:52;;;;;;;28.77;13.55;;;12.20;99.90;;;;;;5070397;28;20023;-79
2022/04/13 05:03:18;;;;;;;27.33;14.50;;;12.20;99.90;;;;;;5053942;28;20036;-82
2022/04/13 05:05:43;;;;;;;28.52;15.45;;;12.20;99.90;;;;;;5066129;28;20036;-82
2022/04/13 05:08:09;;;;;;;33.28;16.23;;;12.10;99.90;;;;;;5071710;28;20268;-81
2022/04/13 05:10:34;;;;;;;33.63;17.02;;;12.10;99.90;;;;;;5059165;28;20029;-82
2022/04/13 05:13:02;;;;;;;32.28;16.25;;;12.10;99.90;;;;;;5058899;28;20020;-81
2022/04/13 05:15:28;;;;;;;32.55;16.98;;;12.10;99.90;;;;;;5058130;28;20404;-81
2022/04/13 05:17:53;;;;;;;40.47;21.67;;;12.10;99.90;;;;;;5053690;28;20053;-83
2022/04/13 05:20:19;;;;;;;37.05;18.20;;;12.00;99.90;;;;;;5061490;28;20090;-81
2022/04/13 05:22:44;;;;;;;34.60;19.88;;;12.00;99.90;;;;;;5051865;28;20093;-81
2022/04/13 05:25:12;;;;;;;37.53;19.42;;;12.00;99.90;;;;;;5058255;28;20032;-82
2022/04/13 05:27:39;;;;;;;38.55;19.95;;;12.00;99.90;;;;;;5062903;28;20024;-83
2022/04/13 05:30:06;;;;;;;40.28;20.13;;;12.00;99.90;;;;;;5060035;28;20050;-83
2022/04/13 05:32:44;;;;;;;39.25;20.30;;;11.90;99.90;;;;;;5062971;28;20465;-84
2022/04/13 05:35:09;;;;;;;40.70;20.60;;;11.90;99.90;;;;;;5071059;28;20025;-84
2022/04/13 05:37:35;;;;;;;39.58;20.20;;;11.90;99.90;;;;;;5055291;28;20016;-84
2022/04/13 05:40:00;;;;;;;38.28;20.15;;;11.90;99.90;;;;;;5071789;28;20063;-81
2022/04/13 05:42:26;;;;;;;37.05;20.05;;;12.00;99.90;;;;;;5052016;28;20031;-82
2022/04/13 05:44:52;;;;;;;39.47;20.90;;;12.00;99.90;;;;;;5074474;28;20036;-81
2022/04/13 05:47:18;;;;;;;39.95;20.83;;;12.00;99.90;;;;;;5074995;28;20032;-82
2022/04/13 05:49:44;;;;;;;39.15;19.85;;;12.00;99.90;;;;;;5071818;28;20020;-82
2022/04/13 05:52:09;;;;;;;39.70;20.10;;;12.00;99.90;;;;;;5065692;28;20108;-82
2022/04/13 05:54:35;;;;;;;37.50;20.45;;;12.10;99.90;;;;;;5056187;28;20063;-81
2022/04/13 05:57:02;;;;;;;41.38;19.75;;;12.10;99.90;;;;;;5062856;28;20076;-82
2022/04/13 05:59:28;;;;;;;37.95;20.25;;;12.10;99.90;;;;;;5071330;28;20017;-82
2022/04/13 06:01:54;;;;;;;39.38;19.92;;;12.10;99.90;;;;;;5082988;28;20100;-82
2022/04/13 06:04:20;;;;;;;45.92;19.67;;;12.20;99.90;;;;;;5081863;28;20025;-82
2022/04/13 06:06:45;;;;;;;37.80;19.40;;;12.20;99.90;;;;;;5082268;28;20054;-82
2022/04/13 06:09:11;;;;;;;34.92;18.45;;;12.20;99.90;;;;;;5080511;28;20036;-81
2022/04/13 06:11:36;;;;;;;32.95;19.23;;;12.30;99.90;;;;;;5082023;28;20051;-82
2022/04/13 06:14:02;;;;;;;35.63;18.90;;;12.20;99.90;;;;;;5061784;28;20025;-81
2022/04/13 06:16:28;;;;;;;40.08;18.85;;;12.30;99.90;;;;;;5076403;28;20032;-83
2022/04/13 06:18:53;;;;;;;42.10;19.02;;;12.30;99.90;;;;;;5071844;28;20044;-82
2022/04/13 06:21:19;;;;;;;37.17;19.30;;;12.30;99.90;;;;;;5059892;28;20024;-82
2022/04/13 06:23:45;;;;;;;37.17;19.33;;;12.30;99.90;;;;;;5061839;28;20028;-82
2022/04/13 06:26:10;;;;;;;34.35;17.73;;;12.40;99.90;;;;;;5076440;28;20032;-82
2022/04/13 06:28:36;;;;;;;37.38;17.48;;;12.40;99.90;;;;;;5076752;28;20227;-82
2022/04/13 06:31:01;;;;;;;33.97;17.50;;;12.50;99.90;;;;;;5076056;28;20016;-82
2022/04/13 06:33:27;;;;;;;37.35;18.27;;;12.50;99.90;;;;;;5073461;28;20032;-82
2022/04/13 06:35:52;;;;;;;39.78;17.30;;;12.50;99.90;;;;;;5071338;28;20396;-82
2022/04/13 06:38:18;;;;;;;35.72;16.60;;;12.50;99.90;;;;;;5075833;28;20050;-82
2022/04/13 06:40:43;;;;;;;31.42;16.33;;;12.60;99.90;;;;;;5077272;28;20033;-82
2022/04/13 06:43:09;;;;;;;30.55;16.90;;;12.60;99.90;;;;;;5077379;28;20054;-82
2022/04/13 06:45:36;;;;;;;31.55;17.48;;;12.60;99.90;;;;;;5061106;28;20036;-82
2022/04/13 06:48:02;;;;;;;32.72;16.83;;;12.70;99.90;;;;;;5053301;28;20468;-82
2022/04/13 06:50:28;;;;;;;33.13;16.83;;;12.70;99.90;;;;;;5053765;28;20056;-83
2022/04/13 06:52:53;;;;;;;33.42;17.05;;;12.80;99.90;;;;;;5065165;28;20020;-82
2022/04/13 06:55:19;;;;;;;29.40;16.08;;;12.80;99.90;;;;;;5075578;28;20024;-82
2022/04/13 06:57:45;;;;;;;29.00;16.83;;;12.80;99.90;;;;;;5075580;28;20028;-83
2022/04/13 07:00:12;;;;;;;32.28;16.42;;;12.90;99.90;;;;;;5066080;28;20032;-82
2022/04/13 07:02:39;;;;;;;29.42;15.82;;;12.90;99.90;;;;;;5076257;28;20478;-82
2022/04/13 07:05:05;;;;;;;29.70;16.02;;;13.00;99.90;;;;;;5078243;28;20364;-83
2022/04/13 07:07:31;;;;;;;30.38;15.32;;;13.10;99.90;;;;;;5061090;28;20096;-82
2022/04/13 07:09:56;;;;;;;26.33;15.52;;;13.10;99.90;;;;;;5079124;28;20063;-80
2022/04/13 07:12:22;;;;;;;22.63;14.23;;;13.20;99.90;;;;;;5076235;28;20206;-81
2022/04/13 07:14:47;;;;;;;28.23;15.65;;;13.20;99.90;;;;;;5073866;28;20031;-82
2022/04/13 07:17:13;;;;;;;30.25;15.98;;;13.30;99.90;;;;;;5070292;28;20064;-85
2022/04/13 07:19:38;;;;;;;28.23;15.00;;;13.30;99.90;;;;;;5059839;28;20031;-78
2022/04/13 07:22:05;;;;;;;24.73;14.43;;;13.30;99.90;;;;;;5054254;28;20104;-83
2022/04/13 07:24:30;;;;;;;32.35;15.73;;;13.30;99.90;;;;;;5061395;28;20124;-79
2022/04/13 07:26:56;;;;;;;25.98;14.75;;;13.30;99.90;;;;;;5074473;28;20535;-80
2022/04/13 07:29:22;;;;;;;35.55;15.75;;;13.40;99.90;;;;;;5074076;28;20032;-83
2022/04/13 07:31:47;;;;;;;27.20;15.10;;;13.40;99.90;;;;;;5071910;28;20025;-83
2022/04/13 07:34:13;;;;;;;26.45;15.13;;;13.40;99.90;;;;;;5069741;28;20025;-83
2022/04/13 07:36:39;;;;;;;26.40;15.05;;;13.50;99.90;;;;;;5072197;28;20029;-82
2022/04/13 07:39:05;;;;;;;28.23;15.25;;;13.50;99.90;;;;;;5061668;28;20025;-83
2022/04/13 07:41:30;;;;;;;29.50;15.48;;;13.60;99.90;;;;;;5023971;28;20020;-81
2022/04/13 07:43:57;;;;;;;25.90;15.40;;;13.60;99.90;;;;;;5073479;28;20032;-82
2022/04/13 07:46:27;;;;;;;27.75;15.15;;;13.60;99.90;;;;;;5073216;28;20081;-82
2022/04/13 07:48:53;;;;;;;28.75;14.55;;;13.70;99.90;;;;;;5063572;28;20039;-82
2022/04/13 07:51:19;;;;;;;39.50;21.60;;;13.70;99.90;;;;;;5064115;28;20017;-81
2022/04/13 07:53:45;;;;;;;29.48;16.15;;;13.70;99.90;;;;;;5065862;28;20040;-81
2022/04/13 07:56:12;;;;;;;29.73;15.60;;;13.70;99.90;;;;;;5066904;28;20411;-82
2022/04/13 07:58:38;;;;;;;27.35;13.90;;;13.70;99.90;;;;;;5073194;28;20423;-82
2022/04/13 08:01:03;;;;;;;27.45;13.48;;;13.80;99.90;;;;;;5072733;28;20025;-83
2022/04/13 08:03:29;;;;;;;29.00;13.90;;;13.80;99.90;;;;;;5069469;28;20528;-83
2022/04/13 08:05:54;;;;;;;27.60;13.95;;;13.80;99.90;;;;;;5065022;28;20066;-82
2022/04/13 08:08:20;;;;;;;28.55;14.30;;;13.90;99.90;;;;;;5072964;28;20067;-83
2022/04/13 08:10:46;;;;;;;24.15;13.10;;;13.90;99.90;;;;;;5073133;28;20103;-83
2022/04/13 08:13:12;;;;;;;25.90;13.60;;;13.90;99.90;;;;;;5073207;28;20523;-82
2022/04/13 08:15:37;;;;;;;23.30;13.00;;;13.90;99.90;;;;;;5073477;28;20082;-82
2022/04/13 08:18:03;;;;;;;24.10;12.32;;;13.90;99.90;;;;;;5026964;28;1047286;-83
2022/04/13 08:20:29;;;;;;;23.77;12.70;;;13.90;99.90;;;;;;5068454;28;20445;-82
2022/04/13 08:22:54;;;;;;;22.95;12.45;;;14.00;99.90;;;;;;5072363;28;20495;-82
2022/04/13 08:25:20;;;;;;;28.23;12.25;;;14.00;99.90;;;;;;5073481;28;20032;-79
2022/04/13 08:27:45;;;;;;;27.77;12.93;;;14.00;99.90;;;;;;5057407;28;20029;-82
2022/04/13 08:30:12;;;;;;;26.85;12.88;;;14.00;99.90;;;;;;5053787;28;20013;-83
2022/04/13 08:32:39;;;;;;;24.83;12.45;;;14.10;99.90;;;;;;5054140;28;20099;-83
2022/04/13 08:35:05;;;;;;;23.45;11.77;;;14.10;99.90;;;;;;5053876;28;20021;-82
2022/04/13 08:37:31;;;;;;;25.15;11.88;;;14.10;99.90;;;;;;5053544;28;20481;-83
2022/04/13 08:39:57;;;;;;;23.75;11.80;;;14.20;99.90;;;;;;5053725;28;20017;-83
2022/04/13 08:42:46;;;;;;;23.13;10.77;;;14.20;99.90;;;;;;5053480;28;20544;-83
2022/04/13 08:45:20;;;;;;;22.63;11.07;;;14.30;99.90;;;;;;5053082;28;20033;-83
2022/04/13 08:47:47;;;;;;;22.42;11.30;;;14.30;99.90;;;;;;5062952;28;20047;-82
2022/04/13 08:50:13;;;;;;;22.92;11.20;;;14.30;99.90;;;;;;5067116;28;20027;-83
2022/04/13 08:52:40;;;;;;;24.58;11.85;;;14.30;99.90;;;;;;5072179;28;20025;-83
2022/04/13 08:55:08;;;;;;;26.52;11.25;;;14.40;99.90;;;;;;5073299;28;20021;-83
2022/04/13 08:57:45;;;;;;;20.98;11.35;;;14.40;99.90;;;;;;5066878;28;20017;-83
2022/04/13 09:00:13;;;;;;;24.17;11.05;;;14.40;99.90;;;;;;5066936;28;20035;-82
2022/04/13 09:02:47;;;;;;;23.92;11.10;;;14.40;99.90;;;;;;5061403;28;20020;-82
2022/04/13 09:05:23;;;;;;;22.67;11.27;;;14.40;99.90;;;;;;5067445;28;20021;-83
2022/04/13 09:08:17;;;;;;;22.17;10.15;;;14.50;99.90;;;;;;5057369;28;20037;-82
2022/04/13 09:10:43;;;;;;;19.80;10.90;;;14.50;99.90;;;;;;5067897;28;20037;-83
2022/04/13 09:13:10;;;;;;;20.95;10.38;;;14.50;99.90;;;;;;5072985;28;20024;-83
2022/04/13 09:15:40;;;;;;;20.90;10.40;;;14.60;99.90;;;;;;5072768;28;20119;-83
2022/04/13 09:18:08;;;;;;;19.27;10.30;;;14.70;99.90;;;;;;5066569;28;20048;-83
2022/04/13 09:20:35;;;;;;;22.73;9.70;;;14.70;99.90;;;;;;5052640;28;20096;-83
2022/04/13 09:23:01;;;;;;;18.52;8.98;;;14.70;99.90;;;;;;5052673;28;20063;-83
2022/04/13 09:25:30;;;;;;;20.55;10.07;;;14.70;99.90;;;;;;5052612;28;20464;-83
2022/04/13 09:27:57;;;;;;;20.58;10.52;;;14.80;99.90;;;;;;5052768;28;20025;-83
2022/04/13 09:30:23;;;;;;;21.27;10.85;;;14.80;99.90;;;;;;5053008;28;20059;-83
2022/04/13 09:32:50;;;;;;;24.70;11.30;;;14.80;99.90;;;;;;5066060;28;21479;-83
2022/04/13 09:35:16;;;;;;;23.92;11.73;;;14.80;99.90;;;;;;5067283;28;20119;-83
2022/04/13 09:37:42;;;;;;;20.20;11.38;;;14.80;99.90;;;;;;5067226;28;20032;-83
2022/04/13 09:40:09;;;;;;;25.30;11.38;;;14.80;99.90;;;;;;5066014;28;20030;-83
2022/04/13 09:42:36;;;;;;;22.98;11.45;;;14.80;99.90;;;;;;5040892;28;20477;-83
2022/04/13 09:45:02;;;;;;;22.50;11.05;;;14.80;99.90;;;;;;5051849;28;20437;-82
2022/04/13 09:47:33;;;;;;;26.17;12.05;;;14.80;99.90;;;;;;5062547;28;20055;-83
2022/04/13 09:49:59;;;;;;;27.85;12.52;;;14.70;99.90;;;;;;5065158;28;20021;-83
2022/04/13 09:52:33;;;;;;;23.85;12.10;;;14.70;99.90;;;;;;5066474;28;20012;-76
2022/04/13 09:54:59;;;;;;;24.33;12.25;;;14.70;99.90;;;;;;5060732;28;20039;-83
2022/04/13 09:57:26;;;;;;;26.60;12.90;;;14.80;99.90;;;;;;5071399;28;20059;-82
2022/04/13 09:59:56;;;;;;;27.05;12.88;;;14.70;99.90;;;;;;5070983;28;20032;-83
2022/04/13 10:02:44;;;;;;;24.63;12.02;;;14.70;99.90;;;;;;5072717;28;20233;-79
2022/04/13 10:05:21;;;;;;;20.50;11.35;;;14.70;99.90;;;;;;5072045;28;20029;-79
2022/04/13 10:08:03;;;;;;;26.27;10.95;;;14.70;99.90;;;;;;5072171;28;20035;-83
2022/04/13 10:10:28;;;;;;;23.67;10.40;;;14.70;99.90;;;;;;5053155;28;20029;-83
2022/04/13 10:12:54;;;;;;;25.90;11.20;;;14.70;99.90;;;;;;5060199;28;20416;-83
2022/04/13 10:15:20;;;;;;;21.33;10.82;;;14.60;99.90;;;;;;5072519;28;20435;-83
2022/04/13 10:17:45;;;;;;;24.63;11.40;;;14.70;99.90;;;;;;5071444;28;20724;-83
2022/04/13 10:20:11;;;;;;;23.25;11.55;;;14.70;99.90;;;;;;5064851;28;20406;-83
2022/04/13 10:22:59;;;;;;;23.10;11.85;;;14.70;99.90;;;;;;5052000;28;20525;-83
2022/04/13 10:25:26;;;;;;;26.52;11.13;;;14.70;99.90;;;;;;5069368;28;20027;-83
2022/04/13 10:28:00;;;;;;;25.73;11.60;;;14.70;99.90;;;;;;5072661;28;20482;-83
2022/04/13 10:30:26;;;;;;;21.52;10.77;;;14.80;99.90;;;;;;5053043;28;20519;-83
2022/04/13 10:32:59;;;;;;;25.75;11.23;;;14.80;99.90;;;;;;5063663;28;20049;-83
2022/04/13 10:35:26;;;;;;;20.38;10.57;;;15.00;99.90;;;;;;5065650;28;20028;-83
2022/04/13 10:37:52;;;;;;;22.02;10.00;;;15.00;99.90;;;;;;5064478;28;20129;-83
2022/04/13 10:40:23;;;;;;;18.98;9.50;;;15.00;99.90;;;;;;5058262;28;20525;-82
2022/04/13 10:42:51;;;;;;;23.13;9.70;;;15.10;99.90;;;;;;5084614;28;20029;-83
2022/04/13 10:45:17;;;;;;;19.35;9.45;;;15.20;99.90;;;;;;5088976;28;20043;-82
2022/04/13 10:48:01;;;;;;;19.80;9.40;;;15.20;99.90;;;;;;5078068;28;20025;-82
2022/04/13 10:50:32;;;;;;;22.73;8.77;;;15.30;99.90;;;;;;5066557;28;20473;-83
2022/04/13 10:53:05;;;;;;;23.85;9.30;;;15.30;99.90;;;;;;5064772;28;20025;-83
2022/04/13 10:55:34;;;;;;;16.20;8.70;;;15.30;99.90;;;;;;5061543;28;20060;-82
2022/04/13 10:58:04;;;;;;;17.40;8.85;;;15.40;99.90;;;;;;5060368;28;20049;-82
2022/04/13 11:00:36;;;;;;;19.35;8.68;;;15.40;99.90;;;;;;5058513;28;20480;-82
2022/04/13 11:03:03;;;;;;;23.33;9.75;;;15.50;99.90;;;;;;5059515;28;20285;-82
2022/04/13 11:05:30;;;;;;;20.75;9.32;;;15.60;99.90;;;;;;5044572;28;20037;-82
2022/04/13 11:08:13;;;;;;;18.58;8.70;;;15.70;99.90;;;;;;5065577;28;20063;-82
2022/04/13 11:10:41;;;;;;;22.83;9.20;;;15.70;99.90;;;;;;5057331;28;20155;-83
2022/04/13 11:13:08;;;;;;;18.02;8.18;;;15.80;99.90;;;;;;5056437;28;20294;-82
2022/04/13 11:15:45;;;;;;;16.13;8.98;;;15.90;99.90;;;;;;5055416;28;20040;-82
2022/04/13 11:18:13;;;;;;;21.52;9.60;;;16.00;99.90;;;;;;5060116;28;20511;-83
2022/04/13 11:20:58;;;;;;;19.30;10.07;;;16.10;99.90;;;;;;5073553;28;20089;-83
2022/04/13 11:23:43;;;;;;;;;;;16.20;99.90;;;;;;5081111;28;20052;-83
2022/04/13 11:26:09;;;;;;;19.20;10.05;;;16.30;99.90;;;;;;5075761;28;19916;-81
2022/04/13 11:28:35;;;;;;;23.50;9.90;;;16.40;99.90;;;;;;5074830;28;20058;-81
2022/04/13 11:31:13;;;;;;;18.38;9.88;;;16.50;99.90;;;;;;5071722;28;20043;-81
2022/04/13 11:33:50;;;;;;;18.45;9.80;;;16.60;99.90;;;;;;5069768;28;20419;-82
2022/04/13 11:36:17;;;;;;;16.88;8.85;;;16.70;99.90;;;;;;5081723;28;20020;-82
2022/04/13 11:38:50;;;;;;;16.88;7.95;;;16.80;99.90;;;;;;5080851;28;20021;-82
2022/04/13 11:41:16;;;;;;;15.32;7.53;;;16.80;99.90;;;;;;5067038;28;20035;-82
2022/04/13 11:43:42;;;;;;;14.65;7.47;;;16.90;99.90;;;;;;5069271;28;20500;-82
2022/04/13 11:46:21;;;;;;;16.80;8.23;;;16.90;99.90;;;;;;5063693;28;20111;-81
2022/04/13 11:48:47;;;;;;;17.35;7.68;;;17.00;99.90;;;;;;5066069;28;20041;-82
2022/04/13 11:51:30;;;;;;;14.50;8.63;;;17.00;99.90;;;;;;5068098;28;20054;-83
2022/04/13 11:54:16;;;;;;;15.18;7.93;;;17.10;99.90;;;;;;5082737;28;20017;-76
2022/04/13 11:56:49;;;;;;;15.68;6.78;;;17.00;99.90;;;;;;5084096;28;20040;-82
2022/04/13 11:59:47;;;;;;;12.98;5.40;;;17.00;99.90;;;;;;5073833;28;20587;-81
2022/04/13 12:02:15;;;;;;;12.77;5.97;;;17.00;99.90;;;;;;5072788;28;20040;-83
2022/04/13 12:04:46;;;;;;;14.77;5.75;;;17.00;99.90;;;;;;5060514;28;20020;-83
2022/04/13 12:07:12;;;;;;;12.13;5.78;;;17.10;99.90;;;;;;5056241;28;20040;-83
2022/04/13 12:09:37;;;;;;;12.65;5.90;;;17.10;99.90;;;;;;5038491;28;20400;-83
2022/04/13 12:12:03;;;;;;;13.65;5.22;;;17.10;99.90;;;;;;5055661;28;20044;-82
2022/04/13 12:14:36;;;;;;;11.07;5.70;;;17.20;99.90;;;;;;5021138;28;20056;-82
2022/04/13 12:17:02;;;;;;;13.07;6.07;;;17.40;99.90;;;;;;5055835;28;20117;-83
2022/04/13 12:19:42;;;;;;;10.57;5.32;;;17.50;99.90;;;;;;5039368;28;20553;-83
2022/04/13 12:22:19;;;;;;;8.90;4.00;;;17.70;99.90;;;;;;5038738;28;20646;-83
2022/04/13 12:25:05;;;;;;;8.68;4.75;;;17.80;99.90;;;;;;5057496;28;20021;-83
2022/04/13 12:27:31;;;;;;;12.55;5.38;;;17.80;99.90;;;;;;5040193;28;20535;-83
2022/04/13 12:30:17;;;;;;;10.52;4.90;;;17.90;99.90;;;;;;5057479;28;20033;-83
2022/04/13 12:32:44;;;;;;;9.73;4.82;;;18.00;99.90;;;;;;5057678;28;20021;-83